createdAt,value
2023-04-02T00:01:37.007Z,8.00
2023-04-02T00:05:50.285Z,7.90
2023-04-02T00:09:52.397Z,7.90
2023-04-02T00:13:54.051Z,7.80
2023-04-02T00:17:56.695Z,7.70
2023-04-02T00:21:59.960Z,7.60
2023-04-02T00:26:01.643Z,7.50
2023-04-02T00:30:04.234Z,7.40
2023-04-02T00:34:08.808Z,7.40
2023-04-02T00:38:31.050Z,7.40
2023-04-02T00:42:35.145Z,7.30
2023-04-02T00:46:49.397Z,7.40
2023-04-02T00:50:52.939Z,7.40
2023-04-02T00:55:21.482Z,7.30
2023-04-02T00:59:28.248Z,7.30
2023-04-02T01:03:37.303Z,7.20
2023-04-02T01:08:06.123Z,7.10
2023-04-02T01:12:39.270Z,7.10
2023-04-02T01:16:57.177Z,7.00
2023-04-02T01:21:34.076Z,7.00
2023-04-02T01:25:38.805Z,6.90
2023-04-02T01:29:51.384Z,6.90
2023-04-02T01:33:53.526Z,6.90
2023-04-02T01:38:10.485Z,6.90
2023-04-02T01:42:52.025Z,6.90
2023-04-02T01:46:53.794Z,6.90
2023-04-02T01:50:57.629Z,6.80
2023-04-02T01:54:59.556Z,6.90
2023-04-02T01:59:03.707Z,6.80
2023-04-02T02:03:06.250Z,6.80
2023-04-02T02:07:18.414Z,6.80
2023-04-02T02:11:27.016Z,6.80
2023-04-02T02:15:35.945Z,6.80
2023-04-02T02:19:46.485Z,6.70
2023-04-02T02:23:48.629Z,6.70
2023-04-02T02:27:57.807Z,6.60
2023-04-02T02:32:01.712Z,6.60
2023-04-02T02:36:06.445Z,6.60
2023-04-02T02:40:22.555Z,6.60
2023-04-02T02:44:39.705Z,6.50
2023-04-02T02:48:43.496Z,6.50
2023-04-02T02:52:50.775Z,6.50
2023-04-02T02:56:58.109Z,6.40
2023-04-02T03:01:00.396Z,6.40
2023-04-02T03:05:03.010Z,6.40
2023-04-02T03:09:19.323Z,6.40
2023-04-02T03:13:29.272Z,6.40
2023-04-02T03:17:36.166Z,6.30
2023-04-02T03:21:49.932Z,6.40
2023-04-02T03:26:04.380Z,6.30
2023-04-02T03:30:17.977Z,6.30
2023-04-02T03:34:39.811Z,6.20
2023-04-02T03:38:56.704Z,6.20
2023-04-02T03:43:12.305Z,6.20
2023-04-02T03:47:37.847Z,6.10
2023-04-02T03:51:55.415Z,6.10
2023-04-02T03:56:01.222Z,6.00
2023-04-02T04:00:06.396Z,6.00
2023-04-02T04:04:16.156Z,5.90
2023-04-02T04:08:23.449Z,5.80
2023-04-02T04:12:33.697Z,5.80
2023-04-02T04:16:53.503Z,5.80
2023-04-02T04:21:01.136Z,5.70
2023-04-02T04:25:17.725Z,5.80
2023-04-02T04:29:56.049Z,5.80
2023-04-02T04:34:05.177Z,5.80
2023-04-02T04:38:15.677Z,5.60
2023-04-02T04:42:28.931Z,5.70
2023-04-02T04:46:49.463Z,5.60
2023-04-02T04:50:57.396Z,5.60
2023-04-02T04:54:59.223Z,5.50
2023-04-02T04:59:13.572Z,5.40
2023-04-02T05:03:34.388Z,5.30
2023-04-02T05:07:45.866Z,5.40
2023-04-02T05:12:13.232Z,5.30
2023-04-02T05:16:24.102Z,5.30
2023-04-02T05:20:40.311Z,5.20
2023-04-02T05:24:52.170Z,5.10
2023-04-02T05:29:08.319Z,5.20
2023-04-02T05:33:30.279Z,5.20
2023-04-02T05:37:32.782Z,5.20
2023-04-02T05:41:47.418Z,5.10
2023-04-02T05:45:55.213Z,5.10
2023-04-02T05:50:09.917Z,5.20
2023-04-02T05:54:25.292Z,5.10
2023-04-02T05:58:45.629Z,5.10
2023-04-02T06:03:07.231Z,5.00
2023-04-02T06:07:13.586Z,4.90
2023-04-02T06:11:27.426Z,4.90
2023-04-02T06:15:30.688Z,5.00
2023-04-02T06:19:37.329Z,5.00
2023-04-02T06:24:02.301Z,4.90
2023-04-02T06:28:07.167Z,4.80
2023-04-02T06:32:13.911Z,4.80
2023-04-02T06:36:15.630Z,4.80
2023-04-02T06:40:23.175Z,4.80
2023-04-02T06:44:28.076Z,4.90
2023-04-02T06:48:31.440Z,4.80
2023-04-02T06:53:01.349Z,4.80
2023-04-02T06:57:07.195Z,4.80
2023-04-02T07:01:21.925Z,4.70
2023-04-02T07:05:23.896Z,4.80
2023-04-02T07:09:26.901Z,4.80
2023-04-02T07:13:28.632Z,4.80
2023-04-02T07:17:30.680Z,4.70
2023-04-02T07:21:32.748Z,4.70
2023-04-02T07:25:34.691Z,4.60
2023-04-02T07:29:42.373Z,4.60
2023-04-02T07:33:44.762Z,4.70
2023-04-02T07:37:46.549Z,4.60
2023-04-02T07:41:53.268Z,4.70
2023-04-02T07:45:54.984Z,4.80
2023-04-02T07:49:56.711Z,4.70
2023-04-02T07:53:58.375Z,4.70
2023-04-02T07:58:00.186Z,4.70
2023-04-02T08:02:02.422Z,4.70
2023-04-02T08:06:04.325Z,4.60
2023-04-02T08:10:07.412Z,4.60
2023-04-02T08:14:10.049Z,4.50
2023-04-02T08:18:11.905Z,4.50
2023-04-02T08:22:13.900Z,4.60
2023-04-02T08:26:18.328Z,4.50
2023-04-02T08:30:20.718Z,4.50
2023-04-02T08:34:22.501Z,4.50
2023-04-02T08:38:25.291Z,4.50
2023-04-02T08:42:44.053Z,4.40
2023-04-02T08:46:54.244Z,4.40
2023-04-02T08:50:57.149Z,4.40
2023-04-02T08:55:00.486Z,4.60
2023-04-02T08:59:07.560Z,4.60
2023-04-02T09:03:19.572Z,4.60
2023-04-02T09:07:21.813Z,4.40
2023-04-02T09:11:52.424Z,4.50
2023-04-02T09:16:01.399Z,4.30
2023-04-02T09:20:22.557Z,4.40
2023-04-02T09:24:24.316Z,4.20
2023-04-02T09:28:27.482Z,4.50
2023-04-02T09:32:32.171Z,4.10
2023-04-02T09:36:39.411Z,4.30
2023-04-02T09:40:59.697Z,4.30
2023-04-02T09:45:24.655Z,4.30
2023-04-02T09:49:30.468Z,4.20
2023-04-02T09:53:40.482Z,4.20
2023-04-02T09:57:44.189Z,4.20
2023-04-02T10:01:55.041Z,4.10
2023-04-02T10:06:16.286Z,4.20
2023-04-02T10:10:25.272Z,4.30
2023-04-02T10:14:35.636Z,4.20
2023-04-02T10:18:41.725Z,4.40
2023-04-02T10:22:44.946Z,4.30
2023-04-02T10:27:04.990Z,4.30
2023-04-02T10:31:27.512Z,4.30
2023-04-02T10:35:32.228Z,4.30
2023-04-02T10:39:59.949Z,4.20
2023-04-02T10:44:16.638Z,4.40
2023-04-02T10:48:37.771Z,4.30
2023-04-02T10:52:46.417Z,4.30
2023-04-02T10:56:53.122Z,4.40
2023-04-02T11:01:26.938Z,4.20
2023-04-02T11:05:37.197Z,4.30
2023-04-02T11:09:43.818Z,4.30
2023-04-02T11:13:55.232Z,4.30
2023-04-02T11:17:57.236Z,4.40
2023-04-02T11:22:16.753Z,4.40
2023-04-02T11:26:39.221Z,4.40
2023-04-02T11:30:42.711Z,4.40
2023-04-02T11:34:44.400Z,4.50
2023-04-02T11:38:46.456Z,4.60
2023-04-02T11:42:52.666Z,4.70
2023-04-02T11:47:32.493Z,4.70
2023-04-02T11:51:34.201Z,4.70
2023-04-02T11:55:38.298Z,4.70
2023-04-02T12:00:08.559Z,4.80
2023-04-02T12:04:36.872Z,4.70
2023-04-02T12:08:57.886Z,4.80
2023-04-02T12:13:00.313Z,4.80
2023-04-02T12:17:36.114Z,4.90
2023-04-02T12:21:38.388Z,4.90
2023-04-02T12:25:54.562Z,4.90
2023-04-02T12:30:11.794Z,5.10
2023-04-02T12:34:18.634Z,5.00
2023-04-02T12:38:27.937Z,5.00
2023-04-02T12:42:37.399Z,5.20
2023-04-02T12:46:39.820Z,5.20
2023-04-02T12:50:42.057Z,5.00
2023-04-02T12:54:53.927Z,5.20
2023-04-02T12:58:57.747Z,5.00
2023-04-02T13:03:20.515Z,5.30
2023-04-02T13:07:27.653Z,5.40
2023-04-02T13:11:40.922Z,5.30
2023-04-02T13:15:43.615Z,5.30
2023-04-02T13:19:45.396Z,5.30
2023-04-02T13:23:47.380Z,5.40
2023-04-02T13:27:49.089Z,5.30
2023-04-02T13:31:53.536Z,5.30
2023-04-02T13:35:55.495Z,5.40
2023-04-02T13:39:57.187Z,5.50
2023-04-02T13:44:01.647Z,5.40
2023-04-02T13:48:04.327Z,5.50
2023-04-02T13:52:14.487Z,5.50
2023-04-02T13:56:16.483Z,5.60
2023-04-02T14:00:19.709Z,5.50
2023-04-02T14:04:23.901Z,5.60
2023-04-02T14:08:34.519Z,5.60
2023-04-02T14:12:39.356Z,5.60
2023-04-02T14:17:09.601Z,5.70
2023-04-02T14:21:33.112Z,5.50
2023-04-02T14:25:34.922Z,5.40
2023-04-02T14:30:06.817Z,5.40
2023-04-02T14:34:46.625Z,5.50
2023-04-02T14:39:04.180Z,5.50
2023-04-02T14:43:08.491Z,5.50
2023-04-02T14:47:20.434Z,5.50
2023-04-02T14:51:40.776Z,5.60
2023-04-02T14:55:49.691Z,5.50
2023-04-02T15:00:09.716Z,5.60
2023-04-02T15:04:17.313Z,5.50
2023-04-02T15:08:37.208Z,5.60
2023-04-02T15:12:41.154Z,5.50
2023-04-02T15:16:44.815Z,5.60
2023-04-02T15:21:29.994Z,5.50
2023-04-02T15:25:41.935Z,5.50
2023-04-02T15:29:43.774Z,5.60
2023-04-02T15:33:45.918Z,5.60
2023-04-02T15:38:11.540Z,5.60
2023-04-02T15:42:34.612Z,5.60
2023-04-02T15:47:13.063Z,5.60
2023-04-02T15:51:29.801Z,5.60
2023-04-02T15:55:45.396Z,5.60
2023-04-02T16:00:11.281Z,5.60
2023-04-02T16:04:32.083Z,5.70
2023-04-02T16:08:46.889Z,5.70
2023-04-02T16:12:51.467Z,5.60
2023-04-02T16:16:58.790Z,5.50
2023-04-02T16:21:03.862Z,5.50
2023-04-02T16:25:19.446Z,5.40
2023-04-02T16:29:23.866Z,5.30
2023-04-02T16:33:58.708Z,5.30
2023-04-02T16:38:30.239Z,5.40
2023-04-02T16:42:58.338Z,5.30
2023-04-02T16:47:19.959Z,5.30
2023-04-02T16:51:46.409Z,5.20
2023-04-02T16:56:33.401Z,5.10
2023-04-02T17:01:11.589Z,5.10
2023-04-02T17:05:19.245Z,5.20
2023-04-02T17:09:28.758Z,5.00
2023-04-02T17:13:50.408Z,5.10
2023-04-02T17:17:56.653Z,5.10
2023-04-02T17:22:04.332Z,4.90
2023-04-02T17:26:08.993Z,4.90
2023-04-02T17:30:24.174Z,4.90
2023-04-02T17:34:25.974Z,4.80
2023-04-02T17:38:50.990Z,4.80
2023-04-02T17:43:14.494Z,4.70
2023-04-02T17:47:19.099Z,4.80
2023-04-02T17:51:30.470Z,4.80
2023-04-02T17:56:06.275Z,4.80
2023-04-02T18:00:35.641Z,4.80
2023-04-02T18:04:47.813Z,4.80
2023-04-02T18:09:12.055Z,4.80
2023-04-02T18:13:22.870Z,4.80
2023-04-02T18:17:44.368Z,4.80
2023-04-02T18:21:59.544Z,4.90
2023-04-02T18:26:19.479Z,4.90
2023-04-02T18:30:46.920Z,5.00
2023-04-02T18:35:05.683Z,4.90
2023-04-02T18:39:28.453Z,5.00
2023-04-02T18:43:41.905Z,4.90
2023-04-02T18:48:22.621Z,4.90
2023-04-02T18:52:24.921Z,4.90
2023-04-02T18:56:27.447Z,4.90
2023-04-02T19:00:50.118Z,4.90
2023-04-02T19:05:25.213Z,4.90
2023-04-02T19:09:33.693Z,4.90
2023-04-02T19:13:35.624Z,5.00
2023-04-02T19:17:41.749Z,4.90
2023-04-02T19:22:07.940Z,4.90
2023-04-02T19:26:16.010Z,4.90
2023-04-02T19:30:29.939Z,4.80
2023-04-02T19:35:07.777Z,4.90
2023-04-02T19:39:28.073Z,4.90
2023-04-02T19:43:30.509Z,4.90
2023-04-02T19:47:32.278Z,4.90
2023-04-02T19:51:34.058Z,4.80
2023-04-02T19:55:36.019Z,4.80
2023-04-02T19:59:38.033Z,4.80
2023-04-02T20:03:39.807Z,4.90
2023-04-02T20:07:41.639Z,4.90
2023-04-02T20:11:43.434Z,4.80
2023-04-02T20:15:45.422Z,5.00
2023-04-02T20:19:47.122Z,5.00
2023-04-02T20:23:53.286Z,4.90
2023-04-02T20:27:54.996Z,4.90
2023-04-02T20:31:56.879Z,4.90
2023-04-02T20:36:05.523Z,4.90
2023-04-02T20:40:08.253Z,4.90
2023-04-02T20:44:10.438Z,4.80
2023-04-02T20:48:13.094Z,4.80
2023-04-02T20:52:14.779Z,4.80
2023-04-02T20:56:18.990Z,4.70
2023-04-02T21:00:21.101Z,4.70
2023-04-02T21:04:22.839Z,4.80
2023-04-02T21:08:24.934Z,4.80
2023-04-02T21:12:26.691Z,4.70
2023-04-02T21:16:31.867Z,4.70
2023-04-02T21:20:33.837Z,4.80
2023-04-02T21:24:35.545Z,4.70
2023-04-02T21:28:37.194Z,4.70
2023-04-02T21:32:38.913Z,4.70
2023-04-02T21:36:43.100Z,4.70
2023-04-02T21:40:44.776Z,4.70
2023-04-02T21:44:46.535Z,4.70
2023-04-02T21:48:49.649Z,4.70
2023-04-02T21:52:51.442Z,4.70
2023-04-02T21:56:53.371Z,4.60
2023-04-02T22:00:55.441Z,4.50
2023-04-02T22:04:57.172Z,4.60
2023-04-02T22:09:04.995Z,4.60
2023-04-02T22:13:06.641Z,4.60
2023-04-02T22:17:08.406Z,4.60
2023-04-02T22:21:11.431Z,4.60
2023-04-02T22:25:13.151Z,4.60
2023-04-02T22:29:15.673Z,4.60
2023-04-02T22:33:17.287Z,4.50
2023-04-02T22:37:18.898Z,4.50
2023-04-02T22:41:27.617Z,4.50
2023-04-02T22:45:29.283Z,4.50
2023-04-02T22:49:31.843Z,4.60
2023-04-02T22:53:34.072Z,4.50
2023-04-02T22:57:36.019Z,4.60
2023-04-02T23:01:37.781Z,4.60
2023-04-02T23:05:39.708Z,4.60
2023-04-02T23:09:41.439Z,4.60
2023-04-02T23:13:43.722Z,4.40
2023-04-02T23:17:45.562Z,4.50
2023-04-02T23:21:47.254Z,4.40
2023-04-02T23:25:49.022Z,4.40
2023-04-02T23:29:51.724Z,4.30
2023-04-02T23:33:53.596Z,4.30
2023-04-02T23:37:55.274Z,4.40
2023-04-02T23:41:58.932Z,4.40
2023-04-02T23:46:00.573Z,4.30
2023-04-02T23:50:02.171Z,4.10
2023-04-02T23:54:03.972Z,4.20
2023-04-02T23:58:05.696Z,4.20
